CheckWX is a tool to help pilots better visualize weather data.  It is not intended as a substitute for an official pre-flight weather briefing.

05:17:36 UTC

PADQ TAF
Kodiak Airport
Kodiak, Alaska, USA
PADQ 192340Z 2000/2024 29012KT P6SM SKC FM200300 27004KT P6SM SKC FM201700 VRB03KT 2SM -SN BR SCT005 OVC015 FM202000 14004KT 1 1/2SM -SN BR BKN005 OVC015 FM202200 18005KT 3SM -RASN SCT010 OVC018

Feb-20@
00:00 UTC

Feb-20 @ 00:00 UTC

Feb-20@
03:00 UTC

Feb-20 @ 03:00 UTC

PADQ 192340Z 2000/2024 29012KT P6SM SKC

Expired

Wind
  • 290° at 12 KTS
Visibility
10,000+ meters
Cloud Levels
  • Clear skies

Feb-20@
03:00 UTC

Feb-20 @ 03:00 UTC

Feb-20@
17:00 UTC

Feb-20 @ 17:00 UTC

FM200300 27004KT P6SM SKC

From

FromStandard forecast or significant change

Wind
  • 270° at 4 KTS
Visibility
10,000+ meters
Cloud Levels
  • Clear skies

Feb-20@
17:00 UTC

Feb-20 @ 17:00 UTC

Feb-20@
20:00 UTC

Feb-20 @ 20:00 UTC

FM201700 VRB03KT 2SM -SN BR SCT005 OVC015

From

FromStandard forecast or significant change

Wind
  • Variable at 3 KTS
Visibility
3,219 meters
Conditions
Light Snow, Mist
Cloud Levels
  • Scattered at 500' AGL
  • Overcast at 1,500' AGL

Feb-20@
20:00 UTC

Feb-20 @ 20:00 UTC

Feb-20@
22:00 UTC

Feb-20 @ 22:00 UTC

FM202000 14004KT 1 1/2SM -SN BR BKN005 OVC015

From

FromStandard forecast or significant change

Wind
  • 140° at 4 KTS
Visibility
2,414 meters
Conditions
Light Snow, Mist
Cloud Levels
  • Broken at 500' AGL
  • Overcast at 1,500' AGL

Feb-20@
22:00 UTC

Feb-20 @ 22:00 UTC

Feb-21@
00:00 UTC

Feb-21 @ 00:00 UTC

FM202200 18005KT 3SM -RASN SCT010 OVC018

From

FromStandard forecast or significant change

Wind
  • 180° at 5 KTS
Visibility
4,828 meters
Conditions
Light Rain, Light Snow
Cloud Levels
  • Scattered at 1,000' AGL
  • Overcast at 1,800' AGL